Time;durP1;ratioP1;P1;durP2;ratioP2;P2;SDS_P1;SDS_P2;PMS_P1;PMS_P2;Temp;Humidity;BMP_temperature;BMP_pressure;BME280_temperature;BME280_humidity;BME280_pressure;Samples;Min_cycle;Max_cycle;Signal;HPM_P1;HPM_P2
2022/08/25 00:02:16;;;;;;;5.53;2.83;;;20.80;99.90;;;;;;5052876;28;20190;-83
2022/08/25 00:04:42;;;;;;;4.50;3.03;;;20.80;99.90;;;;;;5053140;28;20233;-83
2022/08/25 00:07:07;;;;;;;3.33;2.13;;;20.90;99.90;;;;;;5034692;28;20649;-83
2022/08/25 00:09:34;;;;;;;5.07;3.03;;;20.80;99.90;;;;;;5053076;28;20245;-83
2022/08/25 00:12:00;;;;;;;14.55;4.18;;;20.80;99.90;;;;;;5052617;28;20204;-83
2022/08/25 00:14:32;;;;;;;5.25;3.20;;;20.70;99.90;;;;;;5052616;28;20254;-83
2022/08/25 00:16:58;;;;;;;5.15;3.53;;;20.70;99.90;;;;;;5034909;28;20643;-84
2022/08/25 00:19:28;;;;;;;8.60;3.55;;;20.70;99.90;;;;;;5052895;28;20267;-83
2022/08/25 00:21:55;;;;;;;13.23;2.97;;;20.70;99.90;;;;;;5052627;28;20157;-88
2022/08/25 00:24:22;;;;;;;5.00;2.88;;;20.60;99.90;;;;;;5052836;28;20179;-83
2022/08/25 00:26:50;;;;;;;5.97;2.67;;;20.60;99.90;;;;;;5052843;28;20852;-83
2022/08/25 00:29:17;;;;;;;4.82;3.05;;;20.60;99.90;;;;;;5052666;28;20618;-83
2022/08/25 00:31:44;;;;;;;4.35;2.95;;;20.60;99.90;;;;;;5052465;28;20654;-83
2022/08/25 00:34:14;;;;;;;6.43;3.55;;;20.60;99.90;;;;;;5052138;28;20192;-83
2022/08/25 00:36:40;;;;;;;6.55;3.30;;;20.50;99.90;;;;;;5035103;28;20572;-83
2022/08/25 00:39:07;;;;;;;9.80;3.72;;;20.70;99.90;;;;;;5052158;28;20182;-83
2022/08/25 00:41:35;;;;;;;4.72;2.67;;;20.50;99.90;;;;;;5034807;28;20241;-83
2022/08/25 00:44:04;;;;;;;4.68;2.95;;;20.40;99.90;;;;;;5052360;28;20526;-84
2022/08/25 00:46:44;;;;;;;4.00;2.90;;;20.40;99.90;;;;;;5052654;28;20234;-83
2022/08/25 00:49:34;;;;;;;4.97;3.22;;;20.40;99.90;;;;;;5036102;28;20179;-83
2022/08/25 00:52:32;;;;;;;6.57;3.30;;;20.70;99.90;;;;;;5034418;28;20204;-83
2022/08/25 00:55:15;;;;;;;9.10;3.15;;;20.20;99.90;;;;;;5032372;28;20653;-85
2022/08/25 00:57:47;;;;;;;5.13;3.33;;;20.30;99.90;;;;;;5056361;28;20179;-83
2022/08/25 01:00:18;;;;;;;5.75;2.85;;;20.30;99.90;;;;;;5055997;28;20160;-83
2022/08/25 01:02:44;;;;;;;8.32;4.35;;;20.20;99.90;;;;;;5056389;28;20242;-83
2022/08/25 01:05:11;;;;;;;5.18;3.03;;;20.20;99.90;;;;;;5055742;28;20253;-83
2022/08/25 01:07:38;;;;;;;3.97;2.80;;;20.20;99.90;;;;;;5056130;28;20175;-83
2022/08/25 01:10:06;;;;;;;4.32;2.67;;;20.00;99.90;;;;;;5055538;28;20194;-83
2022/08/25 01:12:32;;;;;;;6.40;3.40;;;20.20;99.90;;;;;;5055882;28;20714;-82
2022/08/25 01:15:00;;;;;;;3.10;2.75;;;20.10;99.90;;;;;;5055966;28;20211;-82
2022/08/25 01:17:34;;;;;;;6.30;3.20;;;20.10;99.90;;;;;;5055572;28;20179;-82
2022/08/25 01:19:59;;;;;;;4.85;3.17;;;20.10;99.90;;;;;;5055638;28;20160;-83
2022/08/25 01:22:25;;;;;;;4.60;3.05;;;20.10;99.90;;;;;;5055255;28;20549;-83
2022/08/25 01:24:58;;;;;;;5.90;3.35;;;20.00;99.90;;;;;;5037975;28;20184;-83
2022/08/25 01:27:23;;;;;;;5.13;2.63;;;20.00;99.90;;;;;;5055500;28;20261;-83
2022/08/25 01:29:49;;;;;;;5.45;3.25;;;20.00;99.90;;;;;;5055436;28;20610;-83
2022/08/25 01:32:15;;;;;;;6.05;3.47;;;20.00;99.90;;;;;;5055330;28;20607;-83
2022/08/25 01:34:42;;;;;;;3.63;2.97;;;19.90;99.90;;;;;;5055616;28;20180;-83
2022/08/25 01:37:11;;;;;;;9.55;4.20;;;19.90;99.90;;;;;;5055293;28;20180;-83
2022/08/25 01:39:37;;;;;;;10.63;4.93;;;19.90;99.90;;;;;;5055814;28;20171;-83
2022/08/25 01:42:05;;;;;;;6.53;3.17;;;19.90;99.90;;;;;;5055094;28;20187;-83
2022/08/25 01:44:35;;;;;;;4.88;3.08;;;19.90;99.90;;;;;;5055293;28;20712;-83
2022/08/25 01:47:02;;;;;;;4.07;2.70;;;19.90;99.90;;;;;;5055254;28;20629;-83
2022/08/25 01:49:28;;;;;;;4.35;2.75;;;19.90;99.90;;;;;;5037157;28;20180;-83
2022/08/25 01:52:05;;;;;;;4.53;3.10;;;19.80;99.90;;;;;;5055149;28;20212;-83
2022/08/25 01:54:31;;;;;;;5.50;3.17;;;19.80;99.90;;;;;;5055092;28;20167;-83
2022/08/25 01:56:58;;;;;;;8.15;3.65;;;19.70;99.90;;;;;;5055200;28;20180;-83
2022/08/25 01:59:24;;;;;;;6.90;3.90;;;;;;;;;;5037036;28;20656;-83
2022/08/25 02:01:50;;;;;;;4.22;3.20;;;19.70;99.90;;;;;;5055094;28;20214;-83
2022/08/25 02:04:16;;;;;;;4.95;4.03;;;19.60;99.90;;;;;;5036718;28;20188;-83
2022/08/25 02:06:41;;;;;;;4.65;3.28;;;19.60;99.90;;;;;;5037378;28;20231;-83
2022/08/25 02:09:11;;;;;;;5.63;3.60;;;19.60;99.90;;;;;;5054649;28;20266;-83
2022/08/25 02:11:40;;;;;;;7.20;3.63;;;19.60;99.90;;;;;;5037097;28;20211;-83
2022/08/25 02:14:06;;;;;;;5.25;2.95;;;;;;;;;;5054924;28;20176;-83
2022/08/25 02:16:35;;;;;;;5.50;3.53;;;19.50;99.90;;;;;;5036785;28;20179;-84
2022/08/25 02:19:01;;;;;;;5.95;3.33;;;19.50;99.90;;;;;;5054856;28;20180;-83
2022/08/25 02:21:27;;;;;;;7.95;2.97;;;19.50;99.90;;;;;;5054427;28;20258;-83
2022/08/25 02:23:53;;;;;;;9.15;3.38;;;19.40;99.90;;;;;;5054678;28;20279;-83
2022/08/25 02:26:18;;;;;;;5.80;2.85;;;19.40;99.90;;;;;;5054232;28;20550;-84
2022/08/25 02:28:49;;;;;;;5.88;2.67;;;19.40;99.90;;;;;;5036980;28;20180;-83
2022/08/25 02:31:16;;;;;;;4.53;3.00;;;19.40;99.90;;;;;;5054353;28;20692;-84
2022/08/25 02:33:42;;;;;;;10.20;3.55;;;19.40;99.90;;;;;;5054215;28;20198;-83
2022/08/25 02:36:08;;;;;;;5.63;3.28;;;;;;;;;;5054875;28;20748;-83
2022/08/25 02:38:34;;;;;;;4.03;3.13;;;19.40;99.90;;;;;;5054667;28;20180;-83
2022/08/25 02:41:00;;;;;;;5.82;2.83;;;19.30;99.90;;;;;;5054113;28;20208;-83
2022/08/25 02:43:27;;;;;;;7.28;3.38;;;19.30;99.90;;;;;;5053930;28;20641;-83
2022/08/25 02:45:55;;;;;;;5.05;3.10;;;19.30;99.90;;;;;;5054011;28;20219;-83
2022/08/25 02:48:20;;;;;;;5.95;3.70;;;19.30;99.90;;;;;;5053875;28;20217;-83
2022/08/25 02:50:51;;;;;;;6.15;3.00;;;19.30;99.90;;;;;;5054378;28;20259;-83
2022/08/25 02:53:17;;;;;;;5.07;3.67;;;19.20;99.90;;;;;;5053763;28;20184;-83
2022/08/25 02:55:43;;;;;;;3.60;2.78;;;19.20;99.90;;;;;;5054327;28;20191;-83
2022/08/25 02:58:09;;;;;;;3.88;2.90;;;19.20;99.90;;;;;;5036183;28;20180;-83
2022/08/25 03:00:35;;;;;;;4.70;3.33;;;;;;;;;;5036003;28;20267;-83
2022/08/25 03:03:01;;;;;;;7.63;4.38;;;19.30;99.90;;;;;;5053544;28;20180;-83
2022/08/25 03:05:26;;;;;;;7.15;3.42;;;19.10;99.90;;;;;;5053820;28;20183;-83
2022/08/25 03:07:52;;;;;;;4.65;2.97;;;19.10;99.90;;;;;;5053907;28;20184;-84
2022/08/25 03:10:18;;;;;;;3.92;2.78;;;19.10;99.90;;;;;;5053172;28;20675;-85
2022/08/25 03:12:44;;;;;;;3.67;2.50;;;19.00;99.90;;;;;;5053597;28;20202;-83
2022/08/25 03:15:15;;;;;;;5.70;3.47;;;19.00;99.90;;;;;;5053766;28;20188;-83
2022/08/25 03:17:42;;;;;;;7.68;2.97;;;19.00;99.90;;;;;;5052824;28;20167;-83
2022/08/25 03:20:09;;;;;;;10.60;3.20;;;19.00;99.90;;;;;;5053655;28;20390;-82
2022/08/25 03:22:35;;;;;;;8.77;4.53;;;19.00;99.90;;;;;;5053005;28;20180;-82
2022/08/25 03:27:45;;;;;;;4.78;3.00;;;19.00;99.90;;;;;;5053556;28;20644;-82
2022/08/25 03:30:12;;;;;;;5.43;3.60;;;19.00;99.90;;;;;;5053521;28;20180;-82
2022/08/25 03:32:38;;;;;;;4.88;3.55;;;19.10;99.90;;;;;;5053119;28;20253;-82
2022/08/25 03:35:05;;;;;;;5.07;3.70;;;19.00;99.90;;;;;;5053440;28;20240;-82
2022/08/25 03:37:31;;;;;;;7.50;3.72;;;;;;;;;;5053096;28;20179;-82
2022/08/25 03:39:56;;;;;;;4.95;3.10;;;19.00;99.90;;;;;;5053343;28;20218;-82
2022/08/25 03:42:22;;;;;;;6.70;2.90;;;19.00;99.90;;;;;;5052750;28;20267;-83
2022/08/25 03:44:48;;;;;;;5.07;3.35;;;19.00;99.90;;;;;;5035320;28;20195;-82
2022/08/25 03:47:14;;;;;;;5.50;3.22;;;;;;;;;;5053362;28;20167;-82
2022/08/25 03:49:39;;;;;;;4.75;2.90;;;19.00;99.90;;;;;;5018776;28;20184;-82
2022/08/25 03:52:05;;;;;;;6.28;3.22;;;18.90;99.90;;;;;;5052950;28;20691;-83
2022/08/25 03:54:31;;;;;;;3.17;2.78;;;18.90;99.90;;;;;;5052840;28;20176;-83
2022/08/25 03:56:56;;;;;;;6.25;2.78;;;18.80;99.90;;;;;;5053172;28;20553;-83
2022/08/25 03:59:22;;;;;;;4.57;2.65;;;;;;;;;;5052560;28;20610;-85
2022/08/25 04:01:49;;;;;;;11.07;3.47;;;18.80;99.90;;;;;;5034989;28;20184;-82
2022/08/25 04:04:15;;;;;;;5.40;3.17;;;18.80;99.90;;;;;;5045072;28;20268;-83
2022/08/25 04:06:43;;;;;;;6.68;3.17;;;18.70;99.90;;;;;;5066350;28;20203;-84
2022/08/25 04:09:09;;;;;;;3.03;2.50;;;18.70;99.90;;;;;;5054030;28;20714;-83
2022/08/25 04:11:35;;;;;;;5.22;3.13;;;18.70;99.90;;;;;;5070315;28;20234;-84
2022/08/25 04:14:01;;;;;;;4.82;2.47;;;18.90;99.90;;;;;;5071564;28;20699;-83
2022/08/25 04:16:31;;;;;;;4.25;2.92;;;18.80;99.90;;;;;;5053206;28;20279;-83
2022/08/25 04:18:58;;;;;;;4.03;2.72;;;18.90;99.90;;;;;;5071552;28;20179;-83
2022/08/25 04:21:25;;;;;;;4.97;3.40;;;18.90;99.90;;;;;;5053584;28;20244;-82
2022/08/25 04:23:52;;;;;;;8.20;3.60;;;19.00;99.90;;;;;;5070994;28;20271;-83
2022/08/25 04:26:25;;;;;;;5.35;3.13;;;19.00;99.90;;;;;;5063411;28;20190;-82
2022/08/25 04:28:52;;;;;;;5.20;4.00;;;19.00;99.90;;;;;;5072605;28;20229;-83
2022/08/25 04:31:19;;;;;;;3.92;2.97;;;19.00;99.90;;;;;;5074803;28;20211;-82
2022/08/25 04:33:47;;;;;;;7.15;4.15;;;19.10;99.90;;;;;;5076425;28;20274;-83
2022/08/25 04:36:15;;;;;;;4.65;3.20;;;19.10;99.90;;;;;;5084562;28;20215;-84
2022/08/25 04:38:42;;;;;;;6.43;3.78;;;19.10;99.90;;;;;;5072124;28;20219;-83
2022/08/25 04:41:10;;;;;;;6.50;3.08;;;19.30;99.90;;;;;;5069236;28;20569;-82
2022/08/25 04:43:37;;;;;;;5.45;3.30;;;19.30;99.90;;;;;;5073367;28;20261;-83
2022/08/25 04:46:16;;;;;;;4.22;3.42;;;19.40;99.90;;;;;;5071429;28;20227;-82
2022/08/25 04:48:42;;;;;;;8.73;3.40;;;19.40;99.90;;;;;;5072274;28;20175;-83
2022/08/25 04:51:11;;;;;;;5.53;3.95;;;19.60;99.90;;;;;;5074256;28;20194;-83
2022/08/25 04:53:38;;;;;;;9.80;4.53;;;19.70;99.90;;;;;;5073569;28;20186;-83
2022/08/25 04:56:08;;;;;;;8.50;4.43;;;19.80;99.90;;;;;;5074220;28;20180;-83
2022/08/25 04:58:35;;;;;;;6.32;3.33;;;19.90;99.90;;;;;;5055922;28;20183;-83
2022/08/25 05:01:08;;;;;;;3.47;2.83;;;19.90;99.90;;;;;;5074125;28;20190;-83
2022/08/25 05:03:35;;;;;;;4.55;2.88;;;20.10;99.90;;;;;;5033476;28;20202;-83
2022/08/25 05:06:01;;;;;;;5.78;3.92;;;20.20;99.90;;;;;;5065962;28;20236;-83
2022/08/25 05:08:27;;;;;;;4.07;3.00;;;;;;;;;;5063933;28;20172;-84
2022/08/25 05:10:55;;;;;;;3.88;2.40;;;;;;;;;;5064547;28;20191;-83
2022/08/25 05:13:22;;;;;;;3.92;2.65;;;19.90;99.90;;;;;;5067328;28;20686;-84
2022/08/25 05:15:56;;;;;;;4.15;2.50;;;20.30;99.90;;;;;;5053579;28;20636;-83
2022/08/25 05:18:23;;;;;;;4.75;2.58;;;20.80;99.90;;;;;;5077623;28;20164;-83
2022/08/25 05:20:50;;;;;;;5.72;2.47;;;20.20;99.90;;;;;;5060730;28;20211;-84
2022/08/25 05:23:16;;;;;;;5.93;2.83;;;;;;;;;;5080669;28;20210;-85
2022/08/25 05:25:43;;;;;;;5.72;3.63;;;;;;;;;;5063293;28;20182;-82
2022/08/25 05:28:09;;;;;;;3.95;2.10;;;20.20;99.90;;;;;;5083137;28;20183;-83
2022/08/25 05:30:38;;;;;;;3.63;2.85;;;21.00;99.90;;;;;;5059406;28;20180;-84
2022/08/25 05:33:04;;;;;;;3.10;2.53;;;;;;;;;;5065218;28;20242;-83
2022/08/25 05:35:30;;;;;;;4.18;1.98;;;;;;;;;;5048872;28;20718;-84
2022/08/25 05:37:56;;;;;;;4.32;2.88;;;;;;;;;;5067810;28;20179;-84
2022/08/25 05:40:23;;;;;;;6.20;3.00;;;21.10;99.90;;;;;;5047662;28;20766;-85
2022/08/25 05:42:49;;;;;;;4.50;2.58;;;20.60;99.90;;;;;;5064492;28;20253;-83
2022/08/25 05:45:16;;;;;;;12.57;3.22;;;21.10;99.90;;;;;;5063824;28;20232;-84
2022/08/25 05:47:42;;;;;;;3.40;2.10;;;;;;;;;;5066991;28;20201;-84
2022/08/25 05:50:08;;;;;;;6.35;3.10;;;;;;;;;;5064465;28;20245;-84
2022/08/25 05:52:34;;;;;;;8.93;3.45;;;21.70;99.90;;;;;;5062508;28;20218;-83
2022/08/25 05:55:00;;;;;;;3.65;2.25;;;;;;;;;;5037262;28;20183;-84
2022/08/25 05:57:26;;;;;;;5.65;2.67;;;;;;;;;;5039488;28;20263;-86
2022/08/25 05:59:52;;;;;;;6.07;2.80;;;;;;;;;;5036123;28;20275;-83
2022/08/25 06:05:03;;;;;;;5.28;2.60;;;22.10;99.90;;;;;;5039367;28;20191;-83
2022/08/25 06:07:29;;;;;;;4.65;2.70;;;21.70;99.90;;;;;;5054663;28;20191;-84
2022/08/25 06:09:55;;;;;;;2.95;2.25;;;;;;;;;;5054112;28;20176;-84
2022/08/25 06:12:21;;;;;;;5.68;3.30;;;;;;;;;;5036531;28;20207;-84
2022/08/25 06:14:48;;;;;;;6.32;2.72;;;22.20;99.90;;;;;;5036539;28;20180;-84
2022/08/25 06:17:14;;;;;;;4.40;2.78;;;;;;;;;;5036761;28;20614;-84
2022/08/25 06:19:40;;;;;;;4.13;2.78;;;;;;;;;;5054664;28;20186;-86
2022/08/25 06:22:06;;;;;;;3.38;1.83;;;;;;;;;;5073987;28;20191;-84
2022/08/25 06:24:32;;;;;;;3.65;2.70;;;;;;;;;;5058513;28;20263;-84
2022/08/25 06:26:59;;;;;;;6.85;3.35;;;;;;;;;;5074143;28;20199;-83
2022/08/25 06:29:25;;;;;;;7.40;2.42;;;22.70;99.90;;;;;;5074604;28;20185;-83
2022/08/25 06:31:51;;;;;;;3.80;2.45;;;;;;;;;;5073395;28;20666;-85
2022/08/25 06:34:17;;;;;;;2.75;2.00;;;;;;;;;;5074406;28;20245;-85
2022/08/25 06:36:43;;;;;;;2.67;2.42;;;;;;;;;;5064417;28;20271;-85
2022/08/25 06:39:10;;;;;;;3.70;2.85;;;23.00;99.90;;;;;;5072538;28;20194;-86
2022/08/25 06:41:36;;;;;;;4.68;2.00;;;;;;;;;;5039368;28;20176;-84
2022/08/25 06:44:02;;;;;;;4.32;3.00;;;;;;;;;;5052997;28;20621;-85
2022/08/25 06:46:29;;;;;;;3.55;2.30;;;;;;;;;;5053993;28;20313;-85
2022/08/25 06:48:56;;;;;;;3.15;2.28;;;23.40;99.90;;;;;;5054265;28;20183;-86
2022/08/25 06:51:24;;;;;;;2.97;2.17;;;23.20;99.90;;;;;;5081062;28;20211;-82
2022/08/25 06:53:51;;;;;;;5.97;2.63;;;;;;;;;;5066855;28;20180;-84
2022/08/25 06:56:18;;;;;;;3.15;2.35;;;23.80;99.90;;;;;;5053404;28;20272;-86
2022/08/25 06:58:45;;;;;;;2.47;1.58;;;;;;;;;;5058587;28;20200;-84
2022/08/25 07:01:22;;;;;;;11.35;3.13;;;24.00;99.90;;;;;;5057179;28;20180;-84
2022/08/25 07:03:48;;;;;;;3.15;2.28;;;24.10;99.90;;;;;;5063183;28;20163;-86
2022/08/25 07:06:25;;;;;;;5.47;2.13;;;;;;;;;;5077135;28;20225;-88
2022/08/25 07:08:52;;;;;;;6.47;2.33;;;;;;;;;;5082116;28;20209;-84
2022/08/25 07:11:20;;;;;;;3.47;2.38;;;;;;;;;;5042713;28;20211;-84
2022/08/25 07:13:47;;;;;;;2.10;1.80;;;24.50;99.90;;;;;;5039006;28;20278;-86
2022/08/25 07:16:16;;;;;;;3.70;2.13;;;24.70;99.90;;;;;;5073642;28;20628;-84
2022/08/25 07:18:43;;;;;;;3.90;2.28;;;24.80;99.90;;;;;;5074425;28;20207;-84
2022/08/25 07:21:09;;;;;;;2.92;2.10;;;;;;;;;;5056258;28;20540;-87
2022/08/25 07:23:36;;;;;;;5.78;2.30;;;;;;;;;;5084525;28;20163;-85
2022/08/25 07:26:13;;;;;;;20.52;2.53;;;25.00;99.90;;;;;;5089266;28;20221;-87
2022/08/25 07:28:40;;;;;;;4.13;2.30;;;;;;;;;;5055031;28;20654;-85
2022/08/25 07:31:06;;;;;;;2.95;1.83;;;;;;;;;;5072040;28;20254;-83
2022/08/25 07:33:33;;;;;;;2.40;1.92;;;;;;;;;;5072123;28;20186;-85
2022/08/25 07:35:59;;;;;;;6.05;2.78;;;;;;;;;;5071995;28;20266;-85
2022/08/25 07:38:25;;;;;;;5.75;2.33;;;;;;;;;;5073688;28;20269;-88
2022/08/25 07:40:53;;;;;;;6.10;2.25;;;;;;;;;;5042487;28;20551;-86
2022/08/25 07:43:20;;;;;;;6.22;2.50;;;25.80;99.90;;;;;;5053430;28;20187;-85
2022/08/25 07:45:46;;;;;;;3.55;1.83;;;;;;;;;;5055711;28;20227;-86
2022/08/25 07:48:12;;;;;;;2.65;1.67;;;;;;;;;;5052889;28;20217;-85
2022/08/25 07:50:44;;;;;;;2.95;1.90;;;26.10;99.90;;;;;;5053181;28;20270;-86
2022/08/25 07:53:10;;;;;;;4.82;2.30;;;;;;;;;;5051939;28;20192;-86
2022/08/25 07:55:36;;;;;;;2.28;1.90;;;;;;;;;;5053095;28;20171;-86
2022/08/25 07:58:05;;;;;;;4.10;1.83;;;26.40;99.90;;;;;;5057817;28;20183;-85
2022/08/25 08:00:33;;;;;;;2.50;1.63;;;26.70;99.90;;;;;;5052561;28;20190;-85
2022/08/25 08:03:00;;;;;;;5.43;1.70;;;26.80;99.90;;;;;;5052174;28;20395;-86
2022/08/25 08:05:26;;;;;;;3.13;1.90;;;;;;;;;;5051290;28;20186;-85
2022/08/25 08:07:53;;;;;;;4.55;1.98;;;27.00;99.90;;;;;;5032830;28;20214;-85
2022/08/25 08:10:19;;;;;;;3.83;2.45;;;;;;;;;;5033223;28;20766;-85
2022/08/25 08:12:45;;;;;;;2.42;1.75;;;;;;;;;;5050766;28;20724;-85
2022/08/25 08:15:11;;;;;;;5.35;1.63;;;;;;;;;;5050784;28;20183;-84
2022/08/25 08:17:38;;;;;;;3.72;2.10;;;27.40;99.90;;;;;;5033790;28;20190;-84
2022/08/25 08:20:08;;;;;;;3.47;2.15;;;27.60;99.90;;;;;;5034188;28;20180;-85
2022/08/25 08:22:35;;;;;;;2.17;1.65;;;27.50;96.60;;;;;;5068279;28;20194;-85
2022/08/25 08:25:01;;;;;;;3.28;1.58;;;;;;;;;;5052804;28;20567;-86
2022/08/25 08:27:27;;;;;;;2.10;1.40;;;;;;;;;;5071590;28;20644;-85
2022/08/25 08:29:53;;;;;;;3.08;1.33;;;;;;;;;;5053595;28;20222;-85
2022/08/25 08:32:20;;;;;;;5.03;1.90;;;;;;;;;;5029074;28;20306;-86
2022/08/25 08:34:46;;;;;;;6.03;1.60;;;;;;;;;;5065430;28;20175;-85
2022/08/25 08:37:12;;;;;;;3.42;1.70;;;28.00;92.00;;;;;;5071830;28;20659;-85
2022/08/25 08:39:38;;;;;;;3.40;1.95;;;;;;;;;;5060121;28;20188;-86
2022/08/25 08:42:16;;;;;;;2.45;1.73;;;28.00;91.40;;;;;;5033213;28;20180;-86
2022/08/25 08:44:42;;;;;;;2.38;1.90;;;28.10;91.10;;;;;;5051080;28;20209;-86
2022/08/25 08:47:49;;;;;;;2.38;1.55;;;28.20;91.00;;;;;;5051632;28;20189;-86
2022/08/25 08:50:30;;;;;;;3.60;1.38;;;28.30;85.40;;;;;;5051909;28;20200;-87
2022/08/25 08:53:08;;;;;;;1.88;1.10;;;28.40;79.40;;;;;;5052421;28;20203;-85
2022/08/25 08:56:11;;;;;;;5.55;1.40;;;28.60;80.60;;;;;;5052531;28;20215;-86
2022/08/25 08:58:50;;;;;;;1.85;1.17;;;28.70;78.90;;;;;;5047532;28;20179;-88
2022/08/25 09:01:28;;;;;;;1.92;1.70;;;28.70;78.30;;;;;;5081219;28;20179;-86
2022/08/25 09:04:09;;;;;;;1.55;1.20;;;28.80;75.30;;;;;;5071312;28;20163;-86
2022/08/25 09:06:44;;;;;;;5.35;2.03;;;28.90;74.40;;;;;;5071445;28;20218;-85
2022/08/25 09:09:13;;;;;;;2.78;1.67;;;29.00;74.00;;;;;;5071476;28;20198;-86
2022/08/25 09:11:44;;;;;;;6.57;1.98;;;29.10;74.60;;;;;;5071655;28;20233;-85
2022/08/25 09:14:16;;;;;;;4.68;1.65;;;29.20;74.40;;;;;;5071898;28;20186;-86
2022/08/25 09:16:56;;;;;;;3.58;1.88;;;29.20;72.10;;;;;;5075195;28;20179;-86
2022/08/25 09:19:49;;;;;;;4.35;1.42;;;29.40;72.80;;;;;;5075440;28;20250;-87
2022/08/25 09:22:34;;;;;;;1.33;0.80;;;29.50;70.50;;;;;;5075240;28;20253;-86
2022/08/25 09:25:12;;;;;;;1.45;1.10;;;29.60;68.20;;;;;;5075948;28;20616;-86
2022/08/25 09:27:49;;;;;;;1.88;1.33;;;29.70;67.20;;;;;;5060198;28;20176;-85
2022/08/25 09:30:17;;;;;;;1.67;1.02;;;29.80;66.50;;;;;;5038005;28;20689;-86
2022/08/25 09:32:49;;;;;;;1.60;0.77;;;29.90;64.40;;;;;;5072284;28;20206;-85
2022/08/25 09:35:35;;;;;;;1.70;1.08;;;30.00;64.90;;;;;;5075514;28;20197;-86
2022/08/25 09:38:04;;;;;;;3.08;1.55;;;30.20;62.40;;;;;;5074857;28;20536;-87
2022/08/25 09:40:39;;;;;;;2.17;1.20;;;30.20;62.40;;;;;;5074909;28;20175;-86
2022/08/25 09:43:18;;;;;;;2.83;0.98;;;30.20;63.00;;;;;;5074712;28;20217;-85
2022/08/25 09:45:47;;;;;;;1.40;1.02;;;30.10;61.80;;;;;;5073335;28;20226;-85
2022/08/25 09:48:21;;;;;;;3.65;1.05;;;29.90;61.60;;;;;;5055998;28;20190;-86
2022/08/25 09:50:49;;;;;;;1.48;0.88;;;29.80;61.60;;;;;;5073033;28;20186;-87
2022/08/25 09:53:16;;;;;;;0.90;0.90;;;29.80;62.60;;;;;;5074497;28;20203;-84
2022/08/25 09:55:43;;;;;;;1.55;0.80;;;29.80;61.70;;;;;;5075565;28;20172;-87
2022/08/25 09:58:21;;;;;;;2.25;0.98;;;29.90;60.80;;;;;;5074268;28;20679;-86
2022/08/25 10:01:13;;;;;;;1.20;0.90;;;30.10;62.70;;;;;;5074135;28;20160;-85
2022/08/25 10:04:01;;;;;;;4.80;2.22;;;30.40;62.00;;;;;;5063534;28;20179;-86
2022/08/25 10:06:33;;;;;;;2.30;1.63;;;30.70;62.30;;;;;;5067413;28;20188;-86
2022/08/25 10:09:03;;;;;;;1.63;1.17;;;30.80;58.40;;;;;;5062129;28;20685;-86
2022/08/25 10:11:36;;;;;;;1.60;1.13;;;31.00;55.60;;;;;;5063297;28;20200;-86
2022/08/25 10:14:18;;;;;;;1.15;0.98;;;31.00;55.00;;;;;;5063721;28;20187;-85
2022/08/25 10:16:46;;;;;;;1.30;0.80;;;31.10;53.60;;;;;;5068634;28;20172;-86
2022/08/25 10:19:20;;;;;;;3.78;1.73;;;31.10;52.50;;;;;;5064516;28;20269;-85
2022/08/25 10:22:10;;;;;;;2.00;1.42;;;31.10;51.50;;;;;;5066985;28;20178;-86
2022/08/25 10:24:38;;;;;;;2.35;1.10;;;31.20;52.60;;;;;;5065828;28;20164;-86
2022/08/25 10:27:20;;;;;;;0.90;0.73;;;31.20;54.90;;;;;;5069130;28;20180;-86
2022/08/25 10:30:11;;;;;;;0.95;0.85;;;31.50;54.90;;;;;;5065479;28;20164;-86
2022/08/25 10:32:42;;;;;;;3.47;0.90;;;31.60;52.50;;;;;;5067597;28;20218;-86
2022/08/25 10:35:18;;;;;;;1.35;0.82;;;31.70;52.30;;;;;;5048414;28;20663;-86
2022/08/25 10:38:43;;;;;;;0.85;0.77;;;31.90;51.70;;;;;;5067113;28;20183;-87
2022/08/25 10:41:32;;;;;;;3.67;1.30;;;32.00;51.80;;;;;;4981161;28;20179;-85
2022/08/25 10:47:19;;;;;;;1.05;0.90;;;32.00;50.70;;;;;;5067573;28;20182;-86
2022/08/25 10:49:48;;;;;;;2.03;1.05;;;32.00;52.00;;;;;;5070334;28;20187;-85
2022/08/25 10:52:33;;;;;;;0.90;0.80;;;32.10;50.60;;;;;;5053147;28;20207;-86
2022/08/25 10:55:21;;;;;;;1.80;1.00;;;32.20;50.60;;;;;;5078896;28;20719;-86
2022/08/25 10:57:59;;;;;;;2.30;1.10;;;32.10;49.30;;;;;;5072755;28;20164;-85
2022/08/25 11:00:39;;;;;;;0.88;0.80;;;32.10;50.70;;;;;;5064585;28;20167;-86
2022/08/25 11:03:16;;;;;;;0.88;0.80;;;32.20;48.80;;;;;;5062023;28;20702;-86
2022/08/25 11:05:47;;;;;;;1.15;1.05;;;32.20;49.90;;;;;;5065041;28;20168;-86
2022/08/25 11:08:42;;;;;;;2.78;0.77;;;32.20;50.60;;;;;;5044863;28;20502;-87
2022/08/25 11:11:32;;;;;;;0.98;0.82;;;32.10;49.80;;;;;;5064273;28;20646;-85
2022/08/25 11:14:10;;;;;;;2.03;1.17;;;32.10;50.10;;;;;;5065540;28;20182;-85
2022/08/25 11:16:50;;;;;;;1.73;1.30;;;32.10;49.50;;;;;;5045443;28;20630;-86
2022/08/25 11:19:29;;;;;;;1.20;1.10;;;32.20;49.00;;;;;;5068734;28;20167;-87
2022/08/25 11:22:24;;;;;;;4.40;1.40;;;32.20;49.90;;;;;;5064284;28;20179;-85
2022/08/25 11:25:16;;;;;;;8.65;1.55;;;32.20;50.50;;;;;;5065798;28;20632;-85
2022/08/25 11:27:45;;;;;;;3.72;1.05;;;32.20;48.60;;;;;;5063759;28;20167;-85
2022/08/25 11:30:14;;;;;;;1.13;1.00;;;32.20;49.30;;;;;;5063421;28;20172;-86
2022/08/25 11:32:45;;;;;;;2.67;0.98;;;32.20;49.00;;;;;;5064743;28;20648;-85
2022/08/25 11:35:13;;;;;;;2.08;0.98;;;32.30;50.10;;;;;;5062932;28;20273;-84
2022/08/25 11:38:21;;;;;;;3.28;1.40;;;32.20;50.60;;;;;;5063059;28;20179;-84
2022/08/25 11:41:05;;;;;;;1.67;1.02;;;32.20;48.70;;;;;;4980712;28;20201;-86
2022/08/25 11:43:52;;;;;;;3.58;1.33;;;32.20;49.90;;;;;;5056855;28;20649;-85
2022/08/25 11:46:29;;;;;;;3.03;1.08;;;32.20;49.20;;;;;;5048248;28;20360;-86
2022/08/25 11:49:25;;;;;;;1.70;1.20;;;32.20;49.30;;;;;;5064274;28;20518;-85
2022/08/25 11:51:51;;;;;;;4.00;1.60;;;32.20;49.50;;;;;;5062815;28;20228;-85
2022/08/25 11:54:41;;;;;;;2.00;1.05;;;32.00;49.80;;;;;;5058996;28;20179;-84
2022/08/25 11:57:16;;;;;;;4.30;1.58;;;32.00;50.00;;;;;;5045912;28;20229;-85
2022/08/25 12:00:13;;;;;;;2.33;1.40;;;31.90;50.30;;;;;;5060548;28;20167;-85
2022/08/25 12:02:50;;;;;;;2.83;1.83;;;31.80;51.00;;;;;;5052761;28;20183;-85
2022/08/25 12:05:18;;;;;;;0.75;0.70;;;31.90;50.50;;;;;;5063180;28;20257;-85
2022/08/25 12:07:47;;;;;;;0.77;0.77;;;32.00;50.20;;;;;;5062779;28;20175;-86
2022/08/25 12:10:19;;;;;;;4.07;0.98;;;32.00;48.90;;;;;;5061790;28;20233;-85
2022/08/25 12:12:45;;;;;;;1.08;0.88;;;32.10;49.90;;;;;;5063073;28;20206;-85
2022/08/25 12:15:30;;;;;;;2.25;0.90;;;31.90;47.90;;;;;;5061539;28;20184;-85
2022/08/25 12:18:12;;;;;;;2.10;1.45;;;32.00;48.60;;;;;;5064953;28;20175;-84
2022/08/25 12:20:53;;;;;;;1.60;1.10;;;32.20;49.90;;;;;;5062941;28;20164;-85
2022/08/25 12:23:33;;;;;;;1.88;1.00;;;31.90;51.90;;;;;;5065920;28;20176;-85
2022/08/25 12:26:06;;;;;;;1.45;1.17;;;32.20;51.50;;;;;;5063382;28;20173;-85
2022/08/25 12:28:46;;;;;;;1.33;0.60;;;32.30;51.00;;;;;;5062634;28;20160;-84
2022/08/25 12:31:41;;;;;;;3.30;2.00;;;32.30;49.40;;;;;;5045426;28;20175;-84
2022/08/25 12:34:35;;;;;;;2.25;0.93;;;32.40;49.10;;;;;;5045686;28;20546;-84
2022/08/25 12:37:10;;;;;;;2.00;1.02;;;32.40;49.10;;;;;;5045498;28;20194;-85
2022/08/25 12:39:48;;;;;;;2.88;0.93;;;32.40;48.00;;;;;;5066215;28;20632;-86
2022/08/25 12:42:28;;;;;;;3.45;1.10;;;32.40;48.30;;;;;;5068434;28;20179;-84
2022/08/25 12:45:22;;;;;;;1.40;0.88;;;32.50;49.10;;;;;;5074261;28;20305;-86
2022/08/25 12:47:49;;;;;;;3.25;1.27;;;32.50;49.10;;;;;;5051040;28;20227;-84
2022/08/25 12:50:41;;;;;;;0.93;0.80;;;32.50;49.30;;;;;;5084497;28;20178;-85
2022/08/25 12:53:23;;;;;;;1.30;0.80;;;32.60;48.70;;;;;;5077299;28;20222;-85
2022/08/25 12:55:55;;;;;;;2.85;1.20;;;32.50;47.70;;;;;;5065111;28;20175;-85
2022/08/25 12:58:23;;;;;;;4.00;1.20;;;32.40;48.00;;;;;;5067336;28;21151;-86
2022/08/25 13:01:13;;;;;;;0.82;0.75;;;32.40;48.70;;;;;;5056206;28;20301;-86
2022/08/25 13:04:08;;;;;;;1.08;0.98;;;32.70;48.60;;;;;;5072705;28;20328;-85
2022/08/25 13:06:34;;;;;;;1.77;1.02;;;32.70;48.60;;;;;;5073785;28;20171;-85
2022/08/25 13:09:30;;;;;;;2.05;1.35;;;32.70;49.50;;;;;;5056902;28;20194;-86
2022/08/25 13:12:17;;;;;;;1.77;1.13;;;32.70;48.40;;;;;;5047569;28;20222;-84
2022/08/25 13:14:45;;;;;;;2.88;1.00;;;32.70;47.10;;;;;;5068038;28;20168;-88
2022/08/25 13:17:23;;;;;;;5.78;1.65;;;32.90;47.60;;;;;;5050461;28;20579;-85
2022/08/25 13:19:48;;;;;;;6.55;1.08;;;32.90;47.30;;;;;;5072585;28;20636;-86
2022/08/25 13:22:16;;;;;;;1.08;0.90;;;32.70;46.90;;;;;;5056753;28;20188;-86
2022/08/25 13:24:45;;;;;;;1.30;1.00;;;32.80;48.90;;;;;;5071308;28;20542;-86
2022/08/25 13:27:21;;;;;;;3.22;1.17;;;32.90;48.00;;;;;;5073163;28;20237;-86
2022/08/25 13:29:54;;;;;;;1.23;0.88;;;32.80;46.90;;;;;;5061781;28;20564;-86
2022/08/25 13:32:29;;;;;;;2.08;1.17;;;32.70;47.10;;;;;;5073910;28;20237;-84
2022/08/25 13:35:15;;;;;;;6.93;1.40;;;32.70;47.50;;;;;;5073057;28;20179;-84
2022/08/25 13:37:42;;;;;;;2.20;0.77;;;32.70;47.40;;;;;;5076233;28;20182;-85